sensor_id;sensor_type;location;lat;lon;timestamp;P1;durP1;ratioP1;P2;durP2;ratioP2
45848;SDS011;31567;54.600;9.842;2023-08-06T00:03:20;6.05;;;2.60;;
45848;SDS011;31567;54.600;9.842;2023-08-06T00:07:00;4.97;;;2.65;;
45848;SDS011;31567;54.600;9.842;2023-08-06T00:10:40;7.78;;;2.70;;
45848;SDS011;31567;54.600;9.842;2023-08-06T00:14:20;6.68;;;2.65;;
45848;SDS011;31567;54.600;9.842;2023-08-06T00:18:00;5.47;;;2.63;;
45848;SDS011;31567;54.600;9.842;2023-08-06T00:21:39;5.00;;;2.67;;
45848;SDS011;31567;54.600;9.842;2023-08-06T00:25:19;7.25;;;2.80;;
45848;SDS011;31567;54.600;9.842;2023-08-06T00:28:58;8.23;;;2.67;;
45848;SDS011;31567;54.600;9.842;2023-08-06T00:32:38;8.05;;;3.10;;
45848;SDS011;31567;54.600;9.842;2023-08-06T00:36:17;6.55;;;2.70;;
45848;SDS011;31567;54.600;9.842;2023-08-06T00:39:57;6.57;;;2.70;;
45848;SDS011;31567;54.600;9.842;2023-08-06T00:43:36;10.38;;;2.90;;
45848;SDS011;31567;54.600;9.842;2023-08-06T00:47:16;4.20;;;2.67;;
45848;SDS011;31567;54.600;9.842;2023-08-06T00:50:56;4.20;;;3.17;;
45848;SDS011;31567;54.600;9.842;2023-08-06T00:54:35;4.78;;;2.97;;
45848;SDS011;31567;54.600;9.842;2023-08-06T00:58:15;5.00;;;2.85;;
45848;SDS011;31567;54.600;9.842;2023-08-06T01:01:55;6.15;;;3.40;;
45848;SDS011;31567;54.600;9.842;2023-08-06T01:05:35;4.95;;;2.92;;
45848;SDS011;31567;54.600;9.842;2023-08-06T01:17:12;4.07;;;2.55;;
45848;SDS011;31567;54.600;9.842;2023-08-06T01:20:53;6.82;;;2.95;;
45848;SDS011;31567;54.600;9.842;2023-08-06T01:24:32;6.72;;;2.75;;
45848;SDS011;31567;54.600;9.842;2023-08-06T01:28:33;4.75;;;3.05;;
45848;SDS011;31567;54.600;9.842;2023-08-06T01:32:16;5.43;;;2.95;;
45848;SDS011;31567;54.600;9.842;2023-08-06T01:35:58;6.13;;;2.90;;
45848;SDS011;31567;54.600;9.842;2023-08-06T01:39:39;6.88;;;3.25;;
45848;SDS011;31567;54.600;9.842;2023-08-06T01:43:21;6.85;;;3.17;;
45848;SDS011;31567;54.600;9.842;2023-08-06T01:47:00;8.75;;;3.38;;
45848;SDS011;31567;54.600;9.842;2023-08-06T01:50:40;5.82;;;3.20;;
45848;SDS011;31567;54.600;9.842;2023-08-06T01:54:20;3.78;;;2.95;;
45848;SDS011;31567;54.600;9.842;2023-08-06T01:57:59;6.88;;;3.35;;
45848;SDS011;31567;54.600;9.842;2023-08-06T02:01:39;5.00;;;3.30;;
45848;SDS011;31567;54.600;9.842;2023-08-06T02:05:18;4.97;;;2.60;;
45848;SDS011;31567;54.600;9.842;2023-08-06T02:08:58;5.45;;;3.00;;
45848;SDS011;31567;54.600;9.842;2023-08-06T02:12:37;5.28;;;2.80;;
45848;SDS011;31567;54.600;9.842;2023-08-06T02:16:17;7.90;;;3.40;;
45848;SDS011;31567;54.600;9.842;2023-08-06T02:19:56;4.55;;;2.78;;
45848;SDS011;31567;54.600;9.842;2023-08-06T02:23:36;6.50;;;3.15;;
45848;SDS011;31567;54.600;9.842;2023-08-06T02:27:15;6.90;;;3.03;;
45848;SDS011;31567;54.600;9.842;2023-08-06T02:30:55;4.90;;;3.08;;
45848;SDS011;31567;54.600;9.842;2023-08-06T02:34:34;9.45;;;3.38;;
45848;SDS011;31567;54.600;9.842;2023-08-06T02:38:14;4.75;;;2.70;;
45848;SDS011;31567;54.600;9.842;2023-08-06T02:41:53;7.40;;;2.80;;
45848;SDS011;31567;54.600;9.842;2023-08-06T02:45:33;6.95;;;3.28;;
45848;SDS011;31567;54.600;9.842;2023-08-06T02:49:12;4.65;;;2.90;;
45848;SDS011;31567;54.600;9.842;2023-08-06T02:52:52;4.47;;;2.95;;
45848;SDS011;31567;54.600;9.842;2023-08-06T02:56:31;5.13;;;3.13;;
45848;SDS011;31567;54.600;9.842;2023-08-06T03:00:11;6.45;;;2.80;;
45848;SDS011;31567;54.600;9.842;2023-08-06T03:03:51;5.90;;;2.70;;
45848;SDS011;31567;54.600;9.842;2023-08-06T03:07:30;6.00;;;2.92;;
45848;SDS011;31567;54.600;9.842;2023-08-06T03:11:10;7.50;;;2.97;;
45848;SDS011;31567;54.600;9.842;2023-08-06T03:14:49;6.88;;;3.08;;
45848;SDS011;31567;54.600;9.842;2023-08-06T03:18:29;3.70;;;3.10;;
45848;SDS011;31567;54.600;9.842;2023-08-06T03:22:08;3.75;;;2.30;;
45848;SDS011;31567;54.600;9.842;2023-08-06T03:25:48;5.32;;;3.35;;
45848;SDS011;31567;54.600;9.842;2023-08-06T03:29:27;4.53;;;3.42;;
45848;SDS011;31567;54.600;9.842;2023-08-06T03:33:07;4.78;;;3.10;;
45848;SDS011;31567;54.600;9.842;2023-08-06T03:36:47;8.10;;;4.00;;
45848;SDS011;31567;54.600;9.842;2023-08-06T03:40:26;5.35;;;3.35;;
45848;SDS011;31567;54.600;9.842;2023-08-06T03:44:06;7.10;;;3.30;;
45848;SDS011;31567;54.600;9.842;2023-08-06T03:47:45;6.10;;;3.22;;
45848;SDS011;31567;54.600;9.842;2023-08-06T03:51:25;5.38;;;3.13;;
45848;SDS011;31567;54.600;9.842;2023-08-06T03:55:04;5.70;;;3.50;;
45848;SDS011;31567;54.600;9.842;2023-08-06T03:58:44;4.78;;;3.55;;
45848;SDS011;31567;54.600;9.842;2023-08-06T04:02:24;7.75;;;3.83;;
45848;SDS011;31567;54.600;9.842;2023-08-06T04:06:03;6.15;;;3.72;;
45848;SDS011;31567;54.600;9.842;2023-08-06T04:09:52;6.63;;;3.78;;
45848;SDS011;31567;54.600;9.842;2023-08-06T04:13:33;11.00;;;3.95;;
45848;SDS011;31567;54.600;9.842;2023-08-06T04:17:13;9.40;;;3.22;;
45848;SDS011;31567;54.600;9.842;2023-08-06T04:20:52;8.23;;;3.65;;
45848;SDS011;31567;54.600;9.842;2023-08-06T04:24:34;7.00;;;3.35;;
45848;SDS011;31567;54.600;9.842;2023-08-06T04:28:13;6.80;;;3.30;;
45848;SDS011;31567;54.600;9.842;2023-08-06T04:31:53;6.88;;;2.95;;
45848;SDS011;31567;54.600;9.842;2023-08-06T04:35:32;7.50;;;2.55;;
45848;SDS011;31567;54.600;9.842;2023-08-06T04:39:12;5.82;;;2.45;;
45848;SDS011;31567;54.600;9.842;2023-08-06T04:42:52;5.75;;;2.35;;
45848;SDS011;31567;54.600;9.842;2023-08-06T04:46:31;4.03;;;2.15;;
45848;SDS011;31567;54.600;9.842;2023-08-06T04:50:11;6.13;;;2.58;;
45848;SDS011;31567;54.600;9.842;2023-08-06T04:53:51;3.78;;;1.98;;
45848;SDS011;31567;54.600;9.842;2023-08-06T04:57:30;4.90;;;2.38;;
45848;SDS011;31567;54.600;9.842;2023-08-06T05:01:10;4.25;;;2.08;;
45848;SDS011;31567;54.600;9.842;2023-08-06T05:04:49;3.80;;;1.85;;
45848;SDS011;31567;54.600;9.842;2023-08-06T05:08:29;8.30;;;2.53;;
45848;SDS011;31567;54.600;9.842;2023-08-06T05:12:08;3.78;;;2.00;;
45848;SDS011;31567;54.600;9.842;2023-08-06T05:15:48;3.58;;;1.90;;
45848;SDS011;31567;54.600;9.842;2023-08-06T05:19:27;3.72;;;1.73;;
45848;SDS011;31567;54.600;9.842;2023-08-06T05:23:07;5.03;;;2.40;;
45848;SDS011;31567;54.600;9.842;2023-08-06T05:26:46;6.43;;;2.30;;
45848;SDS011;31567;54.600;9.842;2023-08-06T05:30:27;6.13;;;2.47;;
45848;SDS011;31567;54.600;9.842;2023-08-06T05:34:07;4.28;;;1.85;;
45848;SDS011;31567;54.600;9.842;2023-08-06T05:37:46;6.38;;;1.40;;
45848;SDS011;31567;54.600;9.842;2023-08-06T05:41:26;3.35;;;1.42;;
45848;SDS011;31567;54.600;9.842;2023-08-06T05:45:06;2.22;;;1.55;;
45848;SDS011;31567;54.600;9.842;2023-08-06T05:48:46;3.58;;;1.30;;
45848;SDS011;31567;54.600;9.842;2023-08-06T05:52:25;3.83;;;1.75;;
45848;SDS011;31567;54.600;9.842;2023-08-06T05:56:05;4.13;;;1.65;;
45848;SDS011;31567;54.600;9.842;2023-08-06T05:59:44;2.80;;;1.50;;
45848;SDS011;31567;54.600;9.842;2023-08-06T06:03:24;5.63;;;1.85;;
45848;SDS011;31567;54.600;9.842;2023-08-06T06:07:03;2.25;;;1.60;;
45848;SDS011;31567;54.600;9.842;2023-08-06T06:10:43;5.00;;;1.67;;
45848;SDS011;31567;54.600;9.842;2023-08-06T06:14:22;3.33;;;1.48;;
45848;SDS011;31567;54.600;9.842;2023-08-06T06:18:02;2.95;;;1.40;;
45848;SDS011;31567;54.600;9.842;2023-08-06T06:21:42;3.58;;;1.50;;
45848;SDS011;31567;54.600;9.842;2023-08-06T06:25:21;3.58;;;1.63;;
45848;SDS011;31567;54.600;9.842;2023-08-06T06:29:01;4.50;;;1.50;;
45848;SDS011;31567;54.600;9.842;2023-08-06T06:32:40;3.53;;;1.52;;
45848;SDS011;31567;54.600;9.842;2023-08-06T06:36:20;1.77;;;1.52;;
45848;SDS011;31567;54.600;9.842;2023-08-06T06:39:59;6.18;;;1.65;;
45848;SDS011;31567;54.600;9.842;2023-08-06T06:43:39;3.05;;;1.30;;
45848;SDS011;31567;54.600;9.842;2023-08-06T06:47:19;5.63;;;1.70;;
45848;SDS011;31567;54.600;9.842;2023-08-06T06:50:59;2.35;;;1.38;;
45848;SDS011;31567;54.600;9.842;2023-08-06T06:54:39;4.03;;;1.50;;
45848;SDS011;31567;54.600;9.842;2023-08-06T06:58:18;5.03;;;1.55;;
45848;SDS011;31567;54.600;9.842;2023-08-06T07:01:58;3.95;;;1.35;;
45848;SDS011;31567;54.600;9.842;2023-08-06T07:05:37;4.30;;;1.60;;
45848;SDS011;31567;54.600;9.842;2023-08-06T07:09:17;3.70;;;1.70;;
45848;SDS011;31567;54.600;9.842;2023-08-06T07:12:56;5.15;;;1.70;;
45848;SDS011;31567;54.600;9.842;2023-08-06T07:16:36;4.82;;;1.45;;
45848;SDS011;31567;54.600;9.842;2023-08-06T07:20:15;2.95;;;1.65;;
45848;SDS011;31567;54.600;9.842;2023-08-06T07:23:55;2.78;;;1.50;;
45848;SDS011;31567;54.600;9.842;2023-08-06T07:27:35;2.63;;;1.60;;
45848;SDS011;31567;54.600;9.842;2023-08-06T07:31:14;3.70;;;1.30;;
45848;SDS011;31567;54.600;9.842;2023-08-06T07:34:54;4.95;;;1.65;;
45848;SDS011;31567;54.600;9.842;2023-08-06T07:38:38;1.63;;;1.40;;
45848;SDS011;31567;54.600;9.842;2023-08-06T07:42:18;3.25;;;1.10;;
45848;SDS011;31567;54.600;9.842;2023-08-06T07:45:59;3.20;;;1.33;;
45848;SDS011;31567;54.600;9.842;2023-08-06T07:49:39;4.85;;;1.50;;
45848;SDS011;31567;54.600;9.842;2023-08-06T07:53:22;4.47;;;1.40;;
45848;SDS011;31567;54.600;9.842;2023-08-06T07:57:02;1.90;;;1.38;;
45848;SDS011;31567;54.600;9.842;2023-08-06T08:00:42;2.92;;;1.52;;
45848;SDS011;31567;54.600;9.842;2023-08-06T08:04:24;1.88;;;1.25;;
45848;SDS011;31567;54.600;9.842;2023-08-06T08:08:04;2.30;;;1.30;;
45848;SDS011;31567;54.600;9.842;2023-08-06T08:11:43;2.10;;;1.63;;
45848;SDS011;31567;54.600;9.842;2023-08-06T08:15:23;1.52;;;1.42;;
45848;SDS011;31567;54.600;9.842;2023-08-06T08:19:05;1.63;;;1.50;;
45848;SDS011;31567;54.600;9.842;2023-08-06T08:22:45;1.60;;;1.50;;
45848;SDS011;31567;54.600;9.842;2023-08-06T08:26:24;5.03;;;1.67;;
45848;SDS011;31567;54.600;9.842;2023-08-06T08:30:06;5.32;;;2.03;;
45848;SDS011;31567;54.600;9.842;2023-08-06T08:33:46;3.38;;;1.50;;
45848;SDS011;31567;54.600;9.842;2023-08-06T08:37:26;2.72;;;1.48;;
45848;SDS011;31567;54.600;9.842;2023-08-06T08:41:05;3.67;;;1.55;;
45848;SDS011;31567;54.600;9.842;2023-08-06T08:44:45;3.95;;;1.35;;
45848;SDS011;31567;54.600;9.842;2023-08-06T08:48:25;1.95;;;1.73;;
45848;SDS011;31567;54.600;9.842;2023-08-06T08:52:06;2.85;;;1.70;;
45848;SDS011;31567;54.600;9.842;2023-08-06T08:55:49;1.90;;;1.45;;
45848;SDS011;31567;54.600;9.842;2023-08-06T08:59:28;4.10;;;1.80;;
45848;SDS011;31567;54.600;9.842;2023-08-06T09:03:08;3.10;;;1.55;;
45848;SDS011;31567;54.600;9.842;2023-08-06T09:06:51;4.13;;;1.73;;
45848;SDS011;31567;54.600;9.842;2023-08-06T09:10:35;3.67;;;1.73;;
45848;SDS011;31567;54.600;9.842;2023-08-06T09:14:16;3.17;;;1.60;;
45848;SDS011;31567;54.600;9.842;2023-08-06T09:17:56;4.40;;;1.88;;
45848;SDS011;31567;54.600;9.842;2023-08-06T09:21:36;5.70;;;1.55;;
45848;SDS011;31567;54.600;9.842;2023-08-06T09:25:21;4.15;;;1.80;;
45848;SDS011;31567;54.600;9.842;2023-08-06T09:29:07;3.40;;;1.83;;
45848;SDS011;31567;54.600;9.842;2023-08-06T09:32:47;3.25;;;1.90;;
45848;SDS011;31567;54.600;9.842;2023-08-06T09:36:30;3.50;;;1.75;;
45848;SDS011;31567;54.600;9.842;2023-08-06T09:40:25;3.60;;;1.70;;
45848;SDS011;31567;54.600;9.842;2023-08-06T09:44:06;3.17;;;1.77;;
45848;SDS011;31567;54.600;9.842;2023-08-06T09:48:02;3.55;;;1.50;;
45848;SDS011;31567;54.600;9.842;2023-08-06T09:51:43;2.53;;;1.70;;
45848;SDS011;31567;54.600;9.842;2023-08-06T09:55:24;2.33;;;1.27;;
45848;SDS011;31567;54.600;9.842;2023-08-06T09:59:05;3.67;;;1.65;;
45848;SDS011;31567;54.600;9.842;2023-08-06T10:02:45;4.32;;;1.60;;
45848;SDS011;31567;54.600;9.842;2023-08-06T10:06:26;2.33;;;1.45;;
45848;SDS011;31567;54.600;9.842;2023-08-06T10:10:07;3.97;;;1.88;;
45848;SDS011;31567;54.600;9.842;2023-08-06T10:13:47;3.50;;;1.70;;
45848;SDS011;31567;54.600;9.842;2023-08-06T10:17:27;1.98;;;1.80;;
45848;SDS011;31567;54.600;9.842;2023-08-06T10:21:08;3.08;;;1.70;;
45848;SDS011;31567;54.600;9.842;2023-08-06T10:24:52;3.88;;;1.63;;
45848;SDS011;31567;54.600;9.842;2023-08-06T10:28:38;3.67;;;1.90;;
45848;SDS011;31567;54.600;9.842;2023-08-06T10:32:18;1.73;;;1.63;;
45848;SDS011;31567;54.600;9.842;2023-08-06T10:36:00;3.70;;;1.80;;
45848;SDS011;31567;54.600;9.842;2023-08-06T10:39:47;4.13;;;1.80;;
45848;SDS011;31567;54.600;9.842;2023-08-06T10:43:31;2.47;;;1.50;;
45848;SDS011;31567;54.600;9.842;2023-08-06T10:47:27;3.05;;;1.10;;
45848;SDS011;31567;54.600;9.842;2023-08-06T10:51:08;2.22;;;1.10;;
45848;SDS011;31567;54.600;9.842;2023-08-06T10:54:49;3.53;;;1.60;;
45848;SDS011;31567;54.600;9.842;2023-08-06T10:58:32;3.15;;;1.55;;
45848;SDS011;31567;54.600;9.842;2023-08-06T11:02:12;2.70;;;1.67;;
45848;SDS011;31567;54.600;9.842;2023-08-06T11:05:52;3.15;;;1.60;;
45848;SDS011;31567;54.600;9.842;2023-08-06T11:09:31;1.98;;;1.40;;
45848;SDS011;31567;54.600;9.842;2023-08-06T11:13:11;2.75;;;1.63;;
45848;SDS011;31567;54.600;9.842;2023-08-06T11:16:50;4.07;;;2.08;;
45848;SDS011;31567;54.600;9.842;2023-08-06T11:20:30;1.85;;;1.30;;
45848;SDS011;31567;54.600;9.842;2023-08-06T11:24:10;2.80;;;1.60;;
45848;SDS011;31567;54.600;9.842;2023-08-06T11:27:50;2.72;;;1.50;;
45848;SDS011;31567;54.600;9.842;2023-08-06T11:31:29;2.25;;;1.38;;
45848;SDS011;31567;54.600;9.842;2023-08-06T11:35:09;2.15;;;1.70;;
45848;SDS011;31567;54.600;9.842;2023-08-06T11:38:49;3.15;;;1.50;;
45848;SDS011;31567;54.600;9.842;2023-08-06T11:42:30;11.57;;;2.75;;
45848;SDS011;31567;54.600;9.842;2023-08-06T11:46:10;2.17;;;1.33;;
45848;SDS011;31567;54.600;9.842;2023-08-06T11:49:50;2.00;;;1.15;;
45848;SDS011;31567;54.600;9.842;2023-08-06T11:53:29;1.83;;;1.10;;
45848;SDS011;31567;54.600;9.842;2023-08-06T11:57:09;2.70;;;1.13;;
45848;SDS011;31567;54.600;9.842;2023-08-06T12:00:50;2.42;;;1.40;;
45848;SDS011;31567;54.600;9.842;2023-08-06T12:04:29;4.30;;;1.30;;
45848;SDS011;31567;54.600;9.842;2023-08-06T12:08:09;3.40;;;1.30;;
45848;SDS011;31567;54.600;9.842;2023-08-06T12:11:48;2.97;;;1.40;;
45848;SDS011;31567;54.600;9.842;2023-08-06T12:15:28;2.47;;;1.27;;
45848;SDS011;31567;54.600;9.842;2023-08-06T12:19:07;2.20;;;1.08;;
45848;SDS011;31567;54.600;9.842;2023-08-06T12:22:47;4.20;;;1.90;;
45848;SDS011;31567;54.600;9.842;2023-08-06T12:26:27;5.38;;;1.60;;
45848;SDS011;31567;54.600;9.842;2023-08-06T12:30:06;3.95;;;2.20;;
45848;SDS011;31567;54.600;9.842;2023-08-06T12:33:46;1.92;;;1.60;;
45848;SDS011;31567;54.600;9.842;2023-08-06T12:37:26;2.72;;;1.60;;
45848;SDS011;31567;54.600;9.842;2023-08-06T12:41:06;2.78;;;1.20;;
45848;SDS011;31567;54.600;9.842;2023-08-06T12:44:45;3.15;;;1.30;;
45848;SDS011;31567;54.600;9.842;2023-08-06T12:48:27;2.17;;;1.58;;
45848;SDS011;31567;54.600;9.842;2023-08-06T12:52:06;3.45;;;1.50;;
45848;SDS011;31567;54.600;9.842;2023-08-06T12:55:48;2.47;;;1.55;;
45848;SDS011;31567;54.600;9.842;2023-08-06T12:59:27;3.28;;;1.38;;
45848;SDS011;31567;54.600;9.842;2023-08-06T13:03:07;4.35;;;1.52;;
45848;SDS011;31567;54.600;9.842;2023-08-06T13:06:46;5.07;;;1.80;;
45848;SDS011;31567;54.600;9.842;2023-08-06T13:10:26;2.60;;;1.70;;
45848;SDS011;31567;54.600;9.842;2023-08-06T13:14:08;4.25;;;1.45;;
45848;SDS011;31567;54.600;9.842;2023-08-06T13:17:49;3.42;;;1.77;;
45848;SDS011;31567;54.600;9.842;2023-08-06T13:21:32;2.95;;;1.70;;
45848;SDS011;31567;54.600;9.842;2023-08-06T13:25:35;2.72;;;1.73;;
45848;SDS011;31567;54.600;9.842;2023-08-06T13:29:16;5.43;;;1.45;;
45848;SDS011;31567;54.600;9.842;2023-08-06T13:32:55;2.63;;;1.50;;
45848;SDS011;31567;54.600;9.842;2023-08-06T13:36:35;3.63;;;1.83;;
45848;SDS011;31567;54.600;9.842;2023-08-06T13:40:15;3.88;;;1.65;;
45848;SDS011;31567;54.600;9.842;2023-08-06T13:43:54;2.00;;;1.40;;
45848;SDS011;31567;54.600;9.842;2023-08-06T13:47:34;2.65;;;1.80;;
45848;SDS011;31567;54.600;9.842;2023-08-06T13:51:13;2.47;;;1.70;;
45848;SDS011;31567;54.600;9.842;2023-08-06T13:54:53;3.20;;;1.60;;
45848;SDS011;31567;54.600;9.842;2023-08-06T13:58:33;2.08;;;1.20;;
45848;SDS011;31567;54.600;9.842;2023-08-06T14:02:12;2.45;;;1.02;;
45848;SDS011;31567;54.600;9.842;2023-08-06T14:05:52;2.65;;;1.65;;
45848;SDS011;31567;54.600;9.842;2023-08-06T14:09:35;2.33;;;1.55;;
45848;SDS011;31567;54.600;9.842;2023-08-06T14:13:14;2.58;;;1.30;;
45848;SDS011;31567;54.600;9.842;2023-08-06T14:16:54;3.78;;;1.30;;
45848;SDS011;31567;54.600;9.842;2023-08-06T14:20:34;2.85;;;1.38;;
45848;SDS011;31567;54.600;9.842;2023-08-06T14:24:14;2.28;;;1.17;;
45848;SDS011;31567;54.600;9.842;2023-08-06T14:27:53;1.40;;;1.30;;
45848;SDS011;31567;54.600;9.842;2023-08-06T14:31:33;3.08;;;1.33;;
45848;SDS011;31567;54.600;9.842;2023-08-06T14:35:12;2.17;;;1.10;;
45848;SDS011;31567;54.600;9.842;2023-08-06T14:38:52;2.53;;;1.40;;
45848;SDS011;31567;54.600;9.842;2023-08-06T14:42:32;2.28;;;1.23;;
45848;SDS011;31567;54.600;9.842;2023-08-06T14:46:11;1.65;;;1.10;;
45848;SDS011;31567;54.600;9.842;2023-08-06T14:49:51;1.70;;;1.30;;
45848;SDS011;31567;54.600;9.842;2023-08-06T14:53:30;6.38;;;1.20;;
45848;SDS011;31567;54.600;9.842;2023-08-06T14:57:10;2.78;;;1.00;;
45848;SDS011;31567;54.600;9.842;2023-08-06T15:00:51;2.67;;;1.20;;
45848;SDS011;31567;54.600;9.842;2023-08-06T15:04:31;2.35;;;1.05;;
45848;SDS011;31567;54.600;9.842;2023-08-06T15:08:10;5.15;;;1.23;;
45848;SDS011;31567;54.600;9.842;2023-08-06T15:11:50;4.78;;;1.58;;
45848;SDS011;31567;54.600;9.842;2023-08-06T15:15:30;2.15;;;1.35;;
45848;SDS011;31567;54.600;9.842;2023-08-06T15:19:09;1.88;;;1.13;;
45848;SDS011;31567;54.600;9.842;2023-08-06T15:22:49;5.55;;;1.35;;
45848;SDS011;31567;54.600;9.842;2023-08-06T15:26:28;2.97;;;1.13;;
45848;SDS011;31567;54.600;9.842;2023-08-06T15:30:08;1.38;;;1.10;;
45848;SDS011;31567;54.600;9.842;2023-08-06T15:33:48;1.23;;;1.23;;
45848;SDS011;31567;54.600;9.842;2023-08-06T15:37:27;1.13;;;1.10;;
45848;SDS011;31567;54.600;9.842;2023-08-06T15:41:09;2.35;;;1.10;;
45848;SDS011;31567;54.600;9.842;2023-08-06T15:44:48;1.75;;;1.10;;
45848;SDS011;31567;54.600;9.842;2023-08-06T15:48:28;1.42;;;1.10;;
45848;SDS011;31567;54.600;9.842;2023-08-06T15:52:08;1.15;;;0.80;;
45848;SDS011;31567;54.600;9.842;2023-08-06T15:55:48;1.05;;;1.02;;
45848;SDS011;31567;54.600;9.842;2023-08-06T15:59:31;2.53;;;0.90;;
45848;SDS011;31567;54.600;9.842;2023-08-06T16:03:11;3.97;;;1.10;;
45848;SDS011;31567;54.600;9.842;2023-08-06T16:06:51;1.92;;;1.10;;
45848;SDS011;31567;54.600;9.842;2023-08-06T16:10:31;2.13;;;1.00;;
45848;SDS011;31567;54.600;9.842;2023-08-06T16:14:10;2.05;;;1.02;;
45848;SDS011;31567;54.600;9.842;2023-08-06T16:17:50;1.55;;;1.00;;
45848;SDS011;31567;54.600;9.842;2023-08-06T16:21:30;1.50;;;0.98;;
45848;SDS011;31567;54.600;9.842;2023-08-06T16:25:11;1.40;;;0.85;;
45848;SDS011;31567;54.600;9.842;2023-08-06T16:28:51;2.42;;;0.80;;
45848;SDS011;31567;54.600;9.842;2023-08-06T16:32:31;2.20;;;1.10;;
45848;SDS011;31567;54.600;9.842;2023-08-06T16:36:10;2.58;;;1.30;;
45848;SDS011;31567;54.600;9.842;2023-08-06T16:39:50;0.93;;;0.90;;
45848;SDS011;31567;54.600;9.842;2023-08-06T16:43:30;0.80;;;0.80;;
45848;SDS011;31567;54.600;9.842;2023-08-06T16:47:09;2.40;;;0.80;;
45848;SDS011;31567;54.600;9.842;2023-08-06T16:50:49;1.15;;;0.80;;
45848;SDS011;31567;54.600;9.842;2023-08-06T16:54:28;1.27;;;0.80;;
45848;SDS011;31567;54.600;9.842;2023-08-06T16:58:08;3.67;;;1.30;;
45848;SDS011;31567;54.600;9.842;2023-08-06T17:01:47;2.88;;;0.75;;
45848;SDS011;31567;54.600;9.842;2023-08-06T17:05:27;2.92;;;0.95;;
45848;SDS011;31567;54.600;9.842;2023-08-06T17:09:07;1.95;;;0.80;;
45848;SDS011;31567;54.600;9.842;2023-08-06T17:12:46;2.38;;;1.00;;
45848;SDS011;31567;54.600;9.842;2023-08-06T17:16:27;2.33;;;1.20;;
45848;SDS011;31567;54.600;9.842;2023-08-06T17:20:07;2.63;;;1.05;;
45848;SDS011;31567;54.600;9.842;2023-08-06T17:23:47;3.08;;;1.05;;
45848;SDS011;31567;54.600;9.842;2023-08-06T17:27:26;3.40;;;1.17;;
45848;SDS011;31567;54.600;9.842;2023-08-06T17:31:06;0.90;;;0.90;;
45848;SDS011;31567;54.600;9.842;2023-08-06T17:34:46;4.40;;;1.50;;
45848;SDS011;31567;54.600;9.842;2023-08-06T17:38:25;1.92;;;1.10;;
45848;SDS011;31567;54.600;9.842;2023-08-06T17:42:05;3.38;;;1.40;;
45848;SDS011;31567;54.600;9.842;2023-08-06T17:45:49;2.95;;;1.45;;
45848;SDS011;31567;54.600;9.842;2023-08-06T17:49:28;3.83;;;1.33;;
45848;SDS011;31567;54.600;9.842;2023-08-06T17:53:08;3.97;;;1.48;;
45848;SDS011;31567;54.600;9.842;2023-08-06T17:56:47;5.82;;;2.78;;
45848;SDS011;31567;54.600;9.842;2023-08-06T18:00:27;2.63;;;1.70;;
45848;SDS011;31567;54.600;9.842;2023-08-06T18:04:07;3.88;;;2.35;;
45848;SDS011;31567;54.600;9.842;2023-08-06T18:07:46;4.97;;;1.67;;
45848;SDS011;31567;54.600;9.842;2023-08-06T18:11:26;5.22;;;1.95;;
45848;SDS011;31567;54.600;9.842;2023-08-06T18:15:06;3.55;;;1.88;;
45848;SDS011;31567;54.600;9.842;2023-08-06T18:18:46;4.55;;;1.50;;
45848;SDS011;31567;54.600;9.842;2023-08-06T18:22:26;4.75;;;1.80;;
45848;SDS011;31567;54.600;9.842;2023-08-06T18:26:06;7.57;;;2.15;;
45848;SDS011;31567;54.600;9.842;2023-08-06T18:29:45;4.07;;;1.90;;
45848;SDS011;31567;54.600;9.842;2023-08-06T18:33:25;2.72;;;1.85;;
45848;SDS011;31567;54.600;9.842;2023-08-06T18:37:05;4.28;;;2.05;;
45848;SDS011;31567;54.600;9.842;2023-08-06T18:40:45;4.82;;;2.17;;
45848;SDS011;31567;54.600;9.842;2023-08-06T18:44:24;4.03;;;2.00;;
45848;SDS011;31567;54.600;9.842;2023-08-06T18:48:05;3.20;;;1.80;;
45848;SDS011;31567;54.600;9.842;2023-08-06T18:51:45;6.13;;;2.33;;
45848;SDS011;31567;54.600;9.842;2023-08-06T18:55:24;4.43;;;2.42;;
45848;SDS011;31567;54.600;9.842;2023-08-06T18:59:04;4.55;;;2.20;;
45848;SDS011;31567;54.600;9.842;2023-08-06T19:02:45;6.40;;;2.50;;
45848;SDS011;31567;54.600;9.842;2023-08-06T19:06:25;6.10;;;2.42;;
45848;SDS011;31567;54.600;9.842;2023-08-06T19:10:08;2.72;;;2.35;;
45848;SDS011;31567;54.600;9.842;2023-08-06T19:13:47;4.80;;;2.33;;
45848;SDS011;31567;54.600;9.842;2023-08-06T19:17:27;4.47;;;2.60;;
45848;SDS011;31567;54.600;9.842;2023-08-06T19:21:07;5.20;;;2.22;;
45848;SDS011;31567;54.600;9.842;2023-08-06T19:24:46;5.47;;;2.17;;
45848;SDS011;31567;54.600;9.842;2023-08-06T19:28:26;4.07;;;2.15;;
45848;SDS011;31567;54.600;9.842;2023-08-06T19:32:05;4.43;;;2.70;;
45848;SDS011;31567;54.600;9.842;2023-08-06T19:39:29;6.35;;;2.17;;
45848;SDS011;31567;54.600;9.842;2023-08-06T19:43:09;5.25;;;2.42;;
45848;SDS011;31567;54.600;9.842;2023-08-06T19:46:50;5.15;;;2.58;;
45848;SDS011;31567;54.600;9.842;2023-08-06T19:50:29;6.45;;;2.60;;
45848;SDS011;31567;54.600;9.842;2023-08-06T19:54:12;3.58;;;2.40;;
45848;SDS011;31567;54.600;9.842;2023-08-06T19:57:51;4.13;;;2.25;;
45848;SDS011;31567;54.600;9.842;2023-08-06T20:01:31;4.88;;;3.20;;
45848;SDS011;31567;54.600;9.842;2023-08-06T20:05:11;3.45;;;2.50;;
45848;SDS011;31567;54.600;9.842;2023-08-06T20:08:50;4.25;;;2.72;;
45848;SDS011;31567;54.600;9.842;2023-08-06T20:12:30;5.07;;;2.55;;
45848;SDS011;31567;54.600;9.842;2023-08-06T20:16:09;3.72;;;2.42;;
45848;SDS011;31567;54.600;9.842;2023-08-06T20:19:50;7.07;;;2.83;;
45848;SDS011;31567;54.600;9.842;2023-08-06T20:23:30;5.38;;;2.72;;
45848;SDS011;31567;54.600;9.842;2023-08-06T20:27:10;6.18;;;2.92;;
45848;SDS011;31567;54.600;9.842;2023-08-06T20:30:49;6.90;;;2.88;;
45848;SDS011;31567;54.600;9.842;2023-08-06T20:34:29;5.95;;;2.72;;
45848;SDS011;31567;54.600;9.842;2023-08-06T20:38:08;5.32;;;2.17;;
45848;SDS011;31567;54.600;9.842;2023-08-06T20:41:48;6.30;;;2.20;;
45848;SDS011;31567;54.600;9.842;2023-08-06T20:45:28;5.18;;;2.30;;
45848;SDS011;31567;54.600;9.842;2023-08-06T20:49:07;5.13;;;2.22;;
45848;SDS011;31567;54.600;9.842;2023-08-06T20:52:47;5.80;;;2.42;;
45848;SDS011;31567;54.600;9.842;2023-08-06T20:56:26;4.78;;;2.10;;
45848;SDS011;31567;54.600;9.842;2023-08-06T21:00:06;5.03;;;3.15;;
45848;SDS011;31567;54.600;9.842;2023-08-06T21:03:46;4.90;;;2.47;;
45848;SDS011;31567;54.600;9.842;2023-08-06T21:07:26;4.60;;;2.65;;
45848;SDS011;31567;54.600;9.842;2023-08-06T21:11:05;6.05;;;2.45;;
45848;SDS011;31567;54.600;9.842;2023-08-06T21:14:46;6.05;;;2.40;;
45848;SDS011;31567;54.600;9.842;2023-08-06T21:18:29;4.10;;;2.30;;
45848;SDS011;31567;54.600;9.842;2023-08-06T21:22:13;2.90;;;2.05;;
45848;SDS011;31567;54.600;9.842;2023-08-06T21:25:56;4.40;;;2.65;;
45848;SDS011;31567;54.600;9.842;2023-08-06T21:29:37;4.97;;;2.63;;
45848;SDS011;31567;54.600;9.842;2023-08-06T21:33:16;8.48;;;2.40;;
45848;SDS011;31567;54.600;9.842;2023-08-06T21:36:56;4.30;;;2.08;;
45848;SDS011;31567;54.600;9.842;2023-08-06T21:40:35;2.95;;;2.60;;
45848;SDS011;31567;54.600;9.842;2023-08-06T21:44:15;3.85;;;2.70;;
45848;SDS011;31567;54.600;9.842;2023-08-06T21:47:54;5.63;;;2.58;;
45848;SDS011;31567;54.600;9.842;2023-08-06T21:51:34;4.22;;;2.40;;
45848;SDS011;31567;54.600;9.842;2023-08-06T21:55:13;3.95;;;2.25;;
45848;SDS011;31567;54.600;9.842;2023-08-06T21:58:53;6.85;;;2.80;;
45848;SDS011;31567;54.600;9.842;2023-08-06T22:02:37;4.68;;;2.15;;
45848;SDS011;31567;54.600;9.842;2023-08-06T22:06:16;3.47;;;2.42;;
45848;SDS011;31567;54.600;9.842;2023-08-06T22:09:56;2.65;;;1.77;;
45848;SDS011;31567;54.600;9.842;2023-08-06T22:13:36;1.98;;;1.63;;
45848;SDS011;31567;54.600;9.842;2023-08-06T22:17:17;4.32;;;1.75;;
45848;SDS011;31567;54.600;9.842;2023-08-06T22:20:57;1.95;;;1.70;;